Time;durP1;ratioP1;P1;durP2;ratioP2;P2;SDS_P1;SDS_P2;PMS_P1;PMS_P2;Temp;Humidity;BMP_temperature;BMP_pressure;BME280_temperature;BME280_humidity;BME280_pressure;Samples;Min_cycle;Max_cycle;Signal;HPM_P1;HPM_P2
2023/09/01 00:01:11;;;;;;;8.00;3.10;;;;;;;10.26;100.00;99207.98;109154;1257;67731;-68
2023/09/01 00:04:30;;;;;;;6.90;2.70;;;;;;;10.23;100.00;99206.96;108999;1258;71666;-65
2023/09/01 00:07:17;;;;;;;7.40;2.50;;;;;;;10.21;100.00;99208.94;109009;1257;59506;-67
2023/09/01 00:10:05;;;;;;;6.70;2.70;;;;;;;10.19;100.00;99212.31;109114;1257;60034;-66
2023/09/01 00:12:51;;;;;;;7.30;3.00;;;;;;;10.17;100.00;99213.18;109154;1257;73501;-67
2023/09/01 00:15:38;;;;;;;6.60;2.20;;;;;;;10.15;100.00;99209.48;109045;1257;68913;-72
2023/09/01 00:18:24;;;;;;;6.30;2.50;;;;;;;10.11;100.00;99208.95;109051;1257;71611;-65
2023/09/01 00:21:11;;;;;;;8.70;2.60;;;;;;;10.08;100.00;99209.61;109020;1257;59238;-66
2023/09/01 00:23:57;;;;;;;7.20;2.20;;;;;;;10.06;100.00;99206.16;109091;1257;61050;-65
2023/09/01 00:26:44;;;;;;;8.10;2.70;;;;;;;10.04;100.00;99210.25;109142;1257;74813;-65
2023/09/01 00:29:33;;;;;;;7.60;2.70;;;;;;;10.02;100.00;99207.92;109072;1257;68139;-64
2023/09/01 00:32:19;;;;;;;6.40;2.40;;;;;;;10.01;100.00;99207.67;109015;1257;71371;-66
2023/09/01 00:35:06;;;;;;;6.80;2.40;;;;;;;10.00;100.00;99207.27;109027;1257;60535;-64
2023/09/01 00:37:52;;;;;;;7.80;2.60;;;;;;;9.97;100.00;99197.22;109028;1258;60100;-64
2023/09/01 00:40:39;;;;;;;7.20;2.50;;;;;;;9.95;100.00;99200.42;109155;1257;75128;-65
2023/09/01 00:43:25;;;;;;;6.00;2.00;;;;;;;9.94;100.00;99198.75;109149;1257;67714;-67
2023/09/01 00:46:12;;;;;;;7.40;2.40;;;;;;;9.93;100.00;99200.95;109011;1257;73122;-64
2023/09/01 00:48:58;;;;;;;8.00;2.50;;;;;;;9.90;100.00;99200.30;109014;1258;59396;-64
2023/09/01 00:51:47;;;;;;;5.90;2.00;;;;;;;9.88;100.00;99197.64;108974;1260;60058;-65
2023/09/01 00:54:34;;;;;;;7.50;2.40;;;;;;;9.86;100.00;99197.15;109074;1257;74689;-65
2023/09/01 00:57:21;;;;;;;6.60;2.40;;;;;;;9.83;100.00;99197.75;109104;1257;67608;-65
2023/09/01 01:00:07;;;;;;;6.20;2.20;;;;;;;9.80;100.00;99193.71;109098;1257;73933;-65
2023/09/01 01:02:55;;;;;;;7.40;2.40;;;;;;;9.78;100.00;99195.91;109017;1257;60688;-64
2023/09/01 01:06:32;;;;;;;5.90;2.10;;;;;;;9.76;100.00;99198.39;109090;1257;60202;-64
2023/09/01 01:10:19;;;;;;;7.00;2.50;;;;;;;9.68;100.00;99195.52;109144;1257;72249;-65
2023/09/01 01:13:18;;;;;;;6.40;2.50;;;;;;;9.69;100.00;99199.30;109004;1257;68948;-65
2023/09/01 01:16:06;;;;;;;7.10;2.40;;;;;;;9.66;100.00;99199.60;109036;1258;72509;-65
2023/09/01 01:18:54;;;;;;;6.90;2.70;;;;;;;9.64;100.00;99202.64;109020;1257;58939;-64
2023/09/01 01:21:44;;;;;;;7.20;2.40;;;;;;;9.61;100.00;99204.79;109020;1257;60193;-64
2023/09/01 01:24:32;;;;;;;6.20;2.50;;;;;;;9.61;100.00;99209.25;109092;1257;74816;-64
2023/09/01 01:27:18;;;;;;;7.40;2.80;;;;;;;9.60;100.00;99210.10;109141;1257;67174;-64
2023/09/01 01:30:06;;;;;;;6.20;2.20;;;;;;;9.58;100.00;99209.38;109128;1257;73591;-65
2023/09/01 01:32:52;;;;;;;7.10;2.40;;;;;;;9.56;100.00;99199.61;109099;1257;58165;-65
2023/09/01 01:36:04;;;;;;;6.40;2.70;;;;;;;9.54;100.00;99198.67;109006;1260;60023;-65
2023/09/01 01:39:04;;;;;;;6.40;2.40;;;;;;;9.52;100.00;99196.56;108951;1260;73683;-66
2023/09/01 01:41:55;;;;;;;8.10;2.70;;;;;;;9.49;100.00;99194.16;108926;1260;67744;-65
2023/09/01 01:44:51;;;;;;;6.60;3.00;;;;;;;9.46;100.00;99193.15;108870;1259;73890;-65
2023/09/01 01:47:38;;;;;;;8.20;3.00;;;;;;;9.44;100.00;99194.09;108873;1260;60392;-64
2023/09/01 01:50:24;;;;;;;6.50;2.90;;;;;;;9.44;100.00;99194.98;108933;1259;58904;-65
2023/09/01 01:53:10;;;;;;;7.60;2.60;;;;;;;9.43;100.00;99197.15;109022;1259;74033;-66
2023/09/01 01:55:56;;;;;;;7.70;2.90;;;;;;;9.44;100.00;99198.01;109018;1259;67934;-66
2023/09/01 01:58:42;;;;;;;7.40;2.80;;;;;;;9.43;100.00;99197.30;108936;1259;71124;-64
2023/09/01 02:01:29;;;;;;;7.30;3.20;;;;;;;9.45;100.00;99199.69;108969;1260;59394;-64
2023/09/01 02:04:15;;;;;;;7.00;3.00;;;;;;;9.46;100.00;99210.15;108983;1259;59954;-65
2023/09/01 02:07:05;;;;;;;8.30;3.50;;;;;;;9.50;100.00;99218.91;109033;1257;74087;-64
2023/09/01 02:09:51;;;;;;;6.60;2.80;;;;;;;9.56;100.00;99221.36;109057;1258;67280;-65
2023/09/01 02:12:37;;;;;;;7.60;3.00;;;;;;;9.64;100.00;99227.95;109092;1257;72519;-65
2023/09/01 02:15:24;;;;;;;7.20;3.50;;;;;;;9.71;100.00;99228.39;109120;1257;59550;-65
2023/09/01 02:18:10;;;;;;;7.90;3.10;;;;;;;9.79;100.00;99227.33;109044;1257;60168;-65
2023/09/01 02:20:56;;;;;;;7.60;3.20;;;;;;;9.85;100.00;99227.48;109130;1257;72319;-65
2023/09/01 02:23:43;;;;;;;7.10;3.50;;;;;;;9.91;100.00;99224.55;109159;1257;67633;-64
2023/09/01 02:26:29;;;;;;;8.70;3.60;;;;;;;9.96;100.00;99225.29;109142;1257;71606;-64
2023/09/01 02:29:16;;;;;;;7.10;3.40;;;;;;;10.03;100.00;99225.11;109128;1257;60666;-65
2023/09/01 02:32:03;;;;;;;7.60;3.30;;;;;;;10.08;100.00;99228.86;109114;1257;60213;-64
2023/09/01 02:34:49;;;;;;;8.00;3.90;;;;;;;10.12;100.00;99226.73;109123;1257;74947;-65
2023/09/01 02:37:36;;;;;;;8.50;3.40;;;;;;;10.16;100.00;99230.75;108991;1258;68020;-65
2023/09/01 02:40:24;;;;;;;8.50;3.50;;;;;;;10.20;100.00;99234.18;108958;1258;71200;-66
2023/09/01 02:43:10;;;;;;;8.10;3.40;;;;;;;10.25;100.00;99238.59;109002;1258;59371;-65
2023/09/01 02:45:57;;;;;;;7.40;3.20;;;;;;;10.29;100.00;99237.31;109039;1258;61137;-65
2023/09/01 02:48:43;;;;;;;8.70;3.60;;;;;;;10.33;100.00;99232.88;109045;1258;73734;-65
2023/09/01 02:51:29;;;;;;;9.00;3.80;;;;;;;10.38;100.00;99233.70;109127;1258;67878;-65
2023/09/01 02:54:16;;;;;;;7.70;3.50;;;;;;;10.42;100.00;99231.21;109032;1258;72368;-65
2023/09/01 02:57:04;;;;;;;7.20;3.30;;;;;;;10.46;100.00;99231.89;109060;1257;58259;-65
2023/09/01 02:59:53;;;;;;;9.30;4.20;;;;;;;10.50;100.00;99222.70;109153;1257;61338;-65
2023/09/01 03:02:39;;;;;;;7.60;3.90;;;;;;;10.52;100.00;99222.80;108991;1257;73563;-66
2023/09/01 03:05:25;;;;;;;8.30;4.10;;;;;;;10.51;100.00;99218.81;109094;1258;67939;-66
2023/09/01 03:08:12;;;;;;;9.70;4.60;;;;;;;10.46;100.00;99212.70;109048;1258;73716;-65
2023/09/01 03:10:58;;;;;;;7.80;3.70;;;;;;;10.45;100.00;99214.77;109057;1258;58164;-66
2023/09/01 03:13:44;;;;;;;8.60;4.20;;;;;;;10.45;100.00;99216.42;109091;1258;60090;-65
2023/09/01 03:16:31;;;;;;;9.00;4.40;;;;;;;10.46;100.00;99218.59;109021;1261;73847;-64
2023/09/01 03:19:17;;;;;;;7.40;3.50;;;;;;;10.47;100.00;99220.14;109131;1258;68693;-64
2023/09/01 03:22:04;;;;;;;8.70;3.80;;;;;;;10.45;100.00;99215.50;108971;1258;72443;-64
2023/09/01 03:24:53;;;;;;;10.40;4.90;;;;;;;10.45;100.00;99218.36;109099;1258;59001;-64
2023/09/01 03:27:39;;;;;;;8.10;4.00;;;;;;;10.44;100.00;99216.86;109209;1258;61476;-64
2023/09/01 03:30:27;;;;;;;9.00;4.40;;;;;;;10.42;100.00;99218.65;109056;1258;72857;-65
2023/09/01 03:33:14;;;;;;;8.40;4.20;;;;;;;10.40;100.00;99217.02;109046;1258;68124;-64
2023/09/01 03:36:02;;;;;;;8.10;4.20;;;;;;;10.38;100.00;99213.80;109016;1258;73674;-65
2023/09/01 03:38:49;;;;;;;8.60;3.90;;;;;;;10.40;100.00;99217.89;109001;1258;59347;-66
2023/09/01 03:41:37;;;;;;;9.50;3.70;;;;;;;10.42;100.00;99219.87;109046;1257;59617;-65
2023/09/01 03:44:23;;;;;;;8.30;3.70;;;;;;;10.44;100.00;99217.59;109011;1257;73461;-65
2023/09/01 03:47:10;;;;;;;9.40;4.40;;;;;;;10.45;100.00;99219.20;109137;1257;66836;-66
2023/09/01 03:49:57;;;;;;;9.40;4.00;;;;;;;10.45;100.00;99216.02;108911;1257;73586;-65
2023/09/01 03:52:44;;;;;;;8.00;3.60;;;;;;;10.44;100.00;99212.80;109029;1258;59489;-64
2023/09/01 03:55:30;;;;;;;7.90;3.70;;;;;;;10.43;100.00;99213.39;108942;1260;59179;-64
2023/09/01 03:58:16;;;;;;;8.60;4.20;;;;;;;10.41;100.00;99209.85;109108;1257;74625;-64
2023/09/01 04:01:08;;;;;;;9.20;4.10;;;;;;;10.37;100.00;99212.98;109117;1257;68951;-65
2023/09/01 04:03:54;;;;;;;8.00;3.80;;;;;;;10.34;100.00;99211.30;108959;1258;70899;-66
2023/09/01 04:06:41;;;;;;;7.60;4.00;;;;;;;10.30;100.00;99210.45;109056;1258;58417;-66
2023/09/01 04:09:27;;;;;;;8.30;4.10;;;;;;;10.27;100.00;99214.79;109023;1258;60106;-65
2023/09/01 04:12:13;;;;;;;9.70;4.60;;;;;;;10.25;100.00;99213.70;109061;1257;73747;-65
2023/09/01 04:15:00;;;;;;;8.30;4.10;;;;;;;10.23;100.00;99212.77;109139;1259;68962;-65
2023/09/01 04:17:47;;;;;;;8.90;4.70;;;;;;;10.22;100.00;99214.52;109039;1258;73693;-65
2023/09/01 04:20:33;;;;;;;7.80;4.20;;;;;;;10.19;100.00;99217.02;109152;1257;58179;-66
2023/09/01 04:23:21;;;;;;;8.30;3.60;;;;;;;10.19;100.00;99215.65;108998;1257;60304;-69
2023/09/01 04:26:08;;;;;;;8.80;4.40;;;;;;;10.20;100.00;99213.80;109063;1257;71456;-70
2023/09/01 04:28:55;;;;;;;7.90;3.90;;;;;;;10.21;100.00;99219.34;109104;1258;66426;-70
2023/09/01 04:31:43;;;;;;;9.20;4.30;;;;;;;10.23;100.00;99216.86;109016;1261;73667;-70
2023/09/01 04:34:29;;;;;;;7.20;3.60;;;;;;;10.28;100.00;99220.87;109022;1257;59305;-68
2023/09/01 04:37:15;;;;;;;9.10;3.90;;;;;;;10.36;100.00;99217.33;109060;1258;59959;-67
2023/09/01 04:40:07;;;;;;;7.20;3.60;;;;;;;10.44;100.00;99214.92;109076;1257;74807;-68
2023/09/01 04:42:53;;;;;;;9.20;4.50;;;;;;;10.52;100.00;99218.05;109009;1260;67594;-67
2023/09/01 04:45:45;;;;;;;8.70;3.80;;;;;;;10.62;100.00;99219.13;109053;1257;72585;-66
2023/09/01 04:48:34;;;;;;;7.10;3.60;;;;;;;10.68;100.00;99216.44;109069;1257;58698;-67
2023/09/01 04:51:21;;;;;;;6.90;3.30;;;;;;;10.76;100.00;99213.38;109099;1257;58769;-70
2023/09/01 04:54:08;;;;;;;7.00;3.40;;;;;;;10.86;100.00;99217.98;109081;1257;73191;-71
2023/09/01 04:56:55;;;;;;;7.60;3.50;;;;;;;10.93;100.00;99214.68;109059;1258;67497;-67
2023/09/01 04:59:45;;;;;;;7.30;3.60;;;;;;;11.04;100.00;99213.45;109022;1258;71150;-67
2023/09/01 05:02:31;;;;;;;7.50;3.00;;;;;;;11.19;100.00;99214.90;108973;1258;59580;-66
2023/09/01 05:05:18;;;;;;;8.30;2.90;;;;;;;11.30;100.00;99218.33;109058;1257;60312;-68
2023/09/01 05:08:05;;;;;;;6.70;3.30;;;;;;;11.44;100.00;99217.89;109041;1258;72284;-66
2023/09/01 05:10:51;;;;;;;8.00;3.60;;;;;;;11.54;100.00;99219.42;109065;1257;68057;-66
2023/09/01 05:13:38;;;;;;;8.70;3.20;;;;;;;11.65;100.00;99216.48;109060;1260;73621;-68
2023/09/01 05:16:24;;;;;;;7.60;3.40;;;;;;;11.80;100.00;99213.45;109067;1257;58092;-69
2023/09/01 05:19:11;;;;;;;7.50;3.40;;;;;;;12.00;99.35;99209.95;109044;1258;58832;-67
2023/09/01 05:21:58;;;;;;;8.80;3.20;;;;;;;12.17;98.23;99203.86;108970;1258;72490;-68
2023/09/01 05:24:44;;;;;;;9.30;3.20;;;;;;;12.37;96.81;99213.66;108989;1260;69008;-66
2023/09/01 05:27:30;;;;;;;9.60;3.20;;;;;;;12.54;96.26;99208.89;109021;1257;72511;-68
2023/09/01 05:30:17;;;;;;;6.70;3.00;;;;;;;12.65;94.31;99211.80;109079;1258;59335;-66
2023/09/01 05:33:04;;;;;;;6.60;2.70;;;;;;;12.77;93.84;99213.96;109131;1257;60012;-71
2023/09/01 05:35:50;;;;;;;8.20;3.20;;;;;;;12.84;93.79;99214.72;108859;1261;74104;-69
2023/09/01 05:38:37;;;;;;;6.80;3.10;;;;;;;12.84;93.31;99214.96;108820;1262;67815;-67
2023/09/01 05:41:23;;;;;;;7.70;3.10;;;;;;;12.89;93.69;99215.38;108752;1264;73527;-66
2023/09/01 05:44:09;;;;;;;8.30;3.60;;;;;;;12.90;93.06;99217.08;108829;1261;58148;-66
2023/09/01 05:46:56;;;;;;;8.00;3.40;;;;;;;12.79;92.75;99208.88;108818;1262;61212;-67
2023/09/01 05:49:42;;;;;;;7.50;3.20;;;;;;;12.79;93.29;99209.27;108823;1262;72379;-66
2023/09/01 05:52:28;;;;;;;9.40;3.80;;;;;;;12.75;92.71;99212.02;108872;1262;67720;-67
2023/09/01 05:55:15;;;;;;;8.50;3.40;;;;;;;12.68;92.51;99214.10;108848;1261;70427;-66
2023/09/01 05:58:02;;;;;;;7.80;3.30;;;;;;;12.68;92.53;99212.92;108815;1261;58701;-66
2023/09/01 06:00:51;;;;;;;7.50;3.40;;;;;;;12.68;92.45;99213.04;108840;1262;61320;-68
2023/09/01 06:03:37;;;;;;;9.10;3.60;;;;;;;12.76;92.42;99213.84;108862;1262;72149;-68
2023/09/01 06:06:23;;;;;;;10.00;3.80;;;;;;;12.92;91.47;99207.94;108949;1257;68732;-66
2023/09/01 06:09:10;;;;;;;9.60;3.70;;;;;;;13.16;89.99;99205.17;109010;1257;71230;-67
2023/09/01 06:11:56;;;;;;;10.00;3.50;;;;;;;13.47;88.71;99210.64;109083;1258;58933;-66
2023/09/01 06:14:42;;;;;;;8.00;3.90;;;;;;;13.72;87.90;99217.30;109080;1257;60148;-70
2023/09/01 06:17:31;;;;;;;7.60;3.90;;;;;;;13.73;86.18;99221.62;109033;1257;74861;-65
2023/09/01 06:20:32;;;;;;;9.10;3.50;;;;;;;13.61;86.10;99222.77;109088;1257;66371;-67
2023/09/01 06:23:18;;;;;;;7.40;3.60;;;;;;;13.25;86.98;99228.14;109029;1257;71357;-65
2023/09/01 06:26:04;;;;;;;8.10;4.10;;;;;;;13.10;88.31;99228.58;109094;1257;59000;-65
2023/09/01 06:28:51;;;;;;;9.50;4.00;;;;;;;13.10;88.84;99230.73;109127;1257;59499;-67
2023/09/01 06:31:37;;;;;;;9.70;3.90;;;;;;;13.13;88.99;99233.48;109050;1257;72780;-68
2023/09/01 06:34:24;;;;;;;8.40;4.00;;;;;;;13.27;89.05;99227.62;109106;1258;67905;-66
2023/09/01 06:37:10;;;;;;;7.20;3.30;;;;;;;13.38;87.84;99228.31;109104;1257;73884;-68
2023/09/01 06:39:56;;;;;;;7.40;3.60;;;;;;;13.44;87.21;99229.10;109067;1258;58712;-67
2023/09/01 06:42:43;;;;;;;8.80;3.60;;;;;;;13.59;86.16;99225.03;108883;1257;188564;-67
2023/09/01 06:45:29;;;;;;;8.00;3.60;;;;;;;13.65;86.07;99227.48;109122;1257;74864;-66
2023/09/01 06:48:16;;;;;;;8.40;3.30;;;;;;;13.63;85.98;99221.64;109053;1257;68938;-65
2023/09/01 06:51:03;;;;;;;6.90;3.30;;;;;;;13.60;85.85;99223.13;109090;1258;72503;-65
2023/09/01 06:53:49;;;;;;;9.60;3.30;;;;;;;13.64;85.95;99217.47;109079;1257;58501;-67
2023/09/01 06:56:35;;;;;;;8.50;3.30;;;;;;;13.59;85.74;99216.68;109099;1259;61194;-66
2023/09/01 06:59:22;;;;;;;7.20;3.50;;;;;;;13.54;86.17;99214.35;109029;1257;74830;-66
2023/09/01 07:02:11;;;;;;;8.40;3.50;;;;;;;13.55;86.68;99221.19;109069;1257;66421;-66
2023/09/01 07:04:57;;;;;;;9.20;3.40;;;;;;;13.59;86.77;99220.05;109054;1260;73881;-67
2023/09/01 07:07:44;;;;;;;7.30;3.10;;;;;;;13.71;86.78;99224.02;109086;1257;60515;-67
2023/09/01 07:10:30;;;;;;;8.10;3.10;;;;;;;13.91;86.44;99222.47;109057;1257;59700;-68
2023/09/01 07:13:19;;;;;;;7.20;3.50;;;;;;;14.02;86.10;99222.34;109102;1257;72392;-69
2023/09/01 07:16:06;;;;;;;6.90;2.80;;;;;;;13.86;85.84;99219.38;108963;1258;69243;-67
2023/09/01 07:18:53;;;;;;;8.00;2.90;;;;;;;13.77;86.25;99221.11;109113;1257;72436;-68
2023/09/01 07:21:40;;;;;;;6.80;2.80;;;;;;;13.67;86.52;99218.31;109036;1257;58262;-67
2023/09/01 07:24:26;;;;;;;8.40;3.50;;;;;;;13.49;87.19;99223.48;109096;1257;60173;-66
2023/09/01 07:27:13;;;;;;;7.10;3.20;;;;;;;13.45;87.99;99227.55;109016;1257;73561;-66
2023/09/01 07:29:59;;;;;;;7.70;3.10;;;;;;;13.47;88.18;99219.71;109006;1258;66595;-68
2023/09/01 07:32:45;;;;;;;8.30;3.40;;;;;;;13.46;88.27;99221.42;108978;1258;73905;-67
2023/09/01 07:35:32;;;;;;;8.10;2.90;;;;;;;13.46;88.01;99220.77;109067;1260;58530;-69
2023/09/01 07:38:19;;;;;;;8.70;3.10;;;;;;;13.57;87.94;99228.70;109065;1257;60075;-67
2023/09/01 07:41:07;;;;;;;9.00;3.40;;;;;;;13.63;87.49;99233.00;109106;1260;74910;-66
2023/09/01 07:43:54;;;;;;;8.00;3.30;;;;;;;13.78;86.52;99232.41;109114;1258;69052;-66
2023/09/01 07:46:40;;;;;;;8.40;3.50;;;;;;;13.82;86.58;99228.71;109079;1257;72552;-67
2023/09/01 07:49:27;;;;;;;6.90;3.00;;;;;;;13.99;85.84;99220.05;109096;1257;58040;-69
2023/09/01 07:52:13;;;;;;;8.40;3.20;;;;;;;14.07;85.07;99226.98;109064;1261;60441;-69
2023/09/01 07:55:00;;;;;;;9.00;3.10;;;;;;;14.23;84.58;99229.80;109084;1257;74807;-67
2023/09/01 07:57:46;;;;;;;9.20;2.70;;;;;;;14.34;83.85;99220.61;109115;1258;66460;-69
2023/09/01 08:00:35;;;;;;;7.30;2.90;;;;;;;14.48;83.12;99223.24;109098;1257;72580;-65
2023/09/01 08:03:21;;;;;;;8.20;3.10;;;;;;;14.50;82.89;99217.10;109080;1260;58199;-65
2023/09/01 08:06:08;;;;;;;8.10;2.90;;;;;;;14.48;82.95;99228.08;109140;1257;58818;-68
2023/09/01 08:08:55;;;;;;;10.00;3.50;;;;;;;14.19;83.25;99230.61;109012;1257;73070;-68
2023/09/01 08:11:42;;;;;;;7.80;3.10;;;;;;;14.03;84.96;99233.52;109054;1258;69172;-67
2023/09/01 08:14:28;;;;;;;8.30;3.30;;;;;;;13.90;85.73;99233.57;109062;1258;71552;-66
2023/09/01 08:17:14;;;;;;;10.40;3.20;;;;;;;13.82;86.33;99240.17;109068;1257;58275;-69
2023/09/01 08:20:03;;;;;;;7.40;3.10;;;;;;;13.73;86.97;99242.85;109109;1258;60159;-67
2023/09/01 08:22:50;;;;;;;9.20;3.60;;;;;;;13.63;87.72;99246.58;109039;1258;72578;-65
2023/09/01 08:25:37;;;;;;;8.40;3.50;;;;;;;13.56;88.03;99245.48;108964;1260;67699;-68
2023/09/01 08:28:24;;;;;;;9.50;3.40;;;;;;;13.43;88.83;99246.31;109043;1257;73384;-67
2023/09/01 08:31:10;;;;;;;7.50;2.80;;;;;;;13.34;89.88;99248.25;109070;1257;58539;-67
2023/09/01 08:33:57;;;;;;;8.00;2.90;;;;;;;13.23;90.67;99249.56;109084;1257;58161;-68
2023/09/01 08:36:44;;;;;;;7.70;3.00;;;;;;;13.23;90.92;99250.30;109127;1257;73896;-72
2023/09/01 08:39:31;;;;;;;8.60;2.90;;;;;;;13.21;90.83;99249.05;109130;1258;67893;-67
2023/09/01 08:42:19;;;;;;;7.20;3.00;;;;;;;13.17;91.48;99249.45;109039;1258;73579;-68
2023/09/01 08:45:07;;;;;;;10.90;2.60;;;;;;;13.12;92.31;99245.19;109060;1257;59030;-67
2023/09/01 08:47:53;;;;;;;8.10;2.90;;;;;;;13.15;92.84;99249.88;109052;1259;59477;-67
2023/09/01 08:50:40;;;;;;;9.10;3.20;;;;;;;13.18;93.25;99253.61;109065;1257;73904;-68
2023/09/01 08:53:27;;;;;;;8.70;3.10;;;;;;;13.22;93.89;99248.89;109003;1261;68774;-66
2023/09/01 08:56:15;;;;;;;8.70;3.40;;;;;;;13.30;93.97;99250.95;108985;1261;73569;-67
2023/09/01 08:59:02;;;;;;;7.50;2.80;;;;;;;13.37;94.04;99252.27;108984;1261;60586;-66
2023/09/01 09:01:49;;;;;;;9.00;3.50;;;;;;;13.33;93.55;99252.80;109020;1260;59964;-69
2023/09/01 09:04:36;;;;;;;9.80;3.50;;;;;;;13.35;93.26;99250.37;108994;1259;73890;-66
2023/09/01 09:07:22;;;;;;;11.20;3.50;;;;;;;13.38;93.34;99250.95;108995;1258;65527;-66
2023/09/01 09:10:09;;;;;;;7.70;3.20;;;;;;;13.34;94.39;99255.94;109001;1258;72452;-67
2023/09/01 09:12:56;;;;;;;7.80;3.30;;;;;;;13.34;94.77;99258.80;108994;1259;60593;-65
2023/09/01 09:15:42;;;;;;;9.10;3.40;;;;;;;13.34;95.07;99257.70;108958;1257;61353;-66
2023/09/01 09:18:29;;;;;;;7.70;3.50;;;;;;;13.37;95.29;99256.23;109077;1257;73883;-65
2023/09/01 09:21:31;;;;;;;10.00;4.40;;;;;;;13.44;94.95;99252.08;109012;1257;68823;-68
2023/09/01 09:24:35;;;;;;;9.10;3.80;;;;;;;13.47;95.16;99253.89;109020;1257;72741;-66
2023/09/01 09:27:22;;;;;;;8.30;3.00;;;;;;;13.54;95.26;99254.67;108993;1257;59642;-69
2023/09/01 09:30:10;;;;;;;6.90;3.00;;;;;;;13.46;94.79;99255.12;109112;1258;59984;-65
2023/09/01 09:33:05;;;;;;;7.80;3.60;;;;;;;13.51;95.20;99257.06;109050;1257;73508;-66
2023/09/01 09:35:51;;;;;;;7.60;3.30;;;;;;;13.47;96.11;99250.86;109076;1257;67715;-66
2023/09/01 09:38:49;;;;;;;8.00;3.30;;;;;;;13.43;96.75;99261.42;109057;1257;72129;-67
2023/09/01 09:41:47;;;;;;;7.80;3.20;;;;;;;13.40;97.47;99262.86;108960;1257;59411;-66
2023/09/01 09:44:35;;;;;;;9.10;3.60;;;;;;;13.23;98.52;99273.74;108985;1260;60037;-65
2023/09/01 09:47:23;;;;;;;9.90;3.80;;;;;;;13.15;99.11;99269.81;109018;1258;73923;-64
2023/09/01 09:50:12;;;;;;;8.20;3.70;;;;;;;13.08;99.92;99268.69;108953;1258;66020;-67
2023/09/01 09:53:02;;;;;;;8.70;4.20;;;;;;;13.01;100.00;99269.60;108988;1260;72893;-68
2023/09/01 09:55:52;;;;;;;10.30;3.90;;;;;;;12.98;100.00;99265.14;108885;1260;59613;-65
2023/09/01 09:58:41;;;;;;;9.50;3.30;;;;;;;12.91;100.00;99270.90;109006;1263;58713;-68
2023/09/01 10:01:40;;;;;;;9.10;3.90;;;;;;;12.89;100.00;99269.73;109024;1257;73883;-65
2023/09/01 10:04:28;;;;;;;9.60;4.30;;;;;;;12.81;100.00;99271.90;109001;1257;67432;-66
2023/09/01 10:07:15;;;;;;;9.80;3.90;;;;;;;12.74;100.00;99276.17;109072;1257;72671;-67
2023/09/01 10:10:03;;;;;;;10.60;4.40;;;;;;;12.63;100.00;99279.97;109031;1258;59013;-65
2023/09/01 10:12:51;;;;;;;9.10;4.20;;;;;;;12.54;100.00;99282.55;109095;1257;58872;-66
2023/09/01 10:15:37;;;;;;;10.30;4.20;;;;;;;12.51;100.00;99283.23;109075;1261;73872;-66
2023/09/01 10:18:24;;;;;;;8.70;4.20;;;;;;;12.47;100.00;99283.15;109082;1257;67687;-66
2023/09/01 10:21:13;;;;;;;10.20;4.40;;;;;;;12.43;100.00;99289.45;109068;1257;71094;-65
2023/09/01 10:24:00;;;;;;;9.20;4.10;;;;;;;12.42;100.00;99285.20;109024;1257;60344;-65
2023/09/01 10:27:09;;;;;;;9.50;4.10;;;;;;;12.42;100.00;99287.14;109120;1257;60388;-65
2023/09/01 10:29:55;;;;;;;9.40;4.10;;;;;;;12.34;100.00;99289.69;109088;1257;73772;-67
2023/09/01 10:32:42;;;;;;;9.00;4.00;;;;;;;12.30;100.00;99291.73;109105;1257;68751;-65
2023/09/01 10:35:47;;;;;;;12.40;5.10;;;;;;;12.28;100.00;99293.48;108929;1259;72501;-69
2023/09/01 10:38:41;;;;;;;10.20;3.80;;;;;;;12.26;100.00;99302.17;108990;1259;59565;-67
2023/09/01 10:42:02;;;;;;;8.20;3.80;;;;;;;12.23;100.00;99303.23;108913;1257;60336;-70
2023/09/01 10:45:17;;;;;;;10.60;4.30;;;;;;;12.23;100.00;99301.71;108970;1257;73938;-67
2023/09/01 10:48:11;;;;;;;8.60;4.10;;;;;;;12.24;100.00;99305.21;108949;1260;67822;-67
2023/09/01 10:51:18;;;;;;;9.00;3.50;;;;;;;12.20;100.00;99301.92;108978;1259;72405;-67
2023/09/01 10:54:16;;;;;;;9.50;3.70;;;;;;;12.18;100.00;99304.55;108947;1259;60358;-68
2023/09/01 10:57:03;;;;;;;10.00;4.20;;;;;;;12.19;100.00;99307.29;109006;1259;58482;-65
2023/09/01 10:59:50;;;;;;;9.00;4.20;;;;;;;12.22;100.00;99305.63;108948;1260;73912;-67
2023/09/01 11:02:36;;;;;;;9.80;4.50;;;;;;;12.25;100.00;99301.26;108920;1260;66555;-68
2023/09/01 11:05:38;;;;;;;10.30;4.20;;;;;;;12.31;100.00;99301.89;109037;1257;73769;-65
2023/09/01 11:08:27;;;;;;;10.60;4.60;;;;;;;12.36;100.00;99293.21;108968;1259;59218;-69
2023/09/01 11:11:13;;;;;;;9.50;3.90;;;;;;;12.42;100.00;99295.14;108953;1260;60313;-66
2023/09/01 11:14:01;;;;;;;9.30;4.70;;;;;;;12.50;100.00;99290.82;108964;1259;73905;-66
2023/09/01 11:16:47;;;;;;;10.40;3.70;;;;;;;12.62;100.00;99290.17;109043;1257;66425;-68
2023/09/01 11:19:47;;;;;;;9.20;4.00;;;;;;;12.76;100.00;99285.11;108978;1259;73120;-66
2023/09/01 11:22:36;;;;;;;10.40;4.30;;;;;;;12.95;100.00;99277.98;108906;1259;59502;-68
2023/09/01 11:25:24;;;;;;;10.00;4.40;;;;;;;13.12;100.00;99280.05;108971;1259;61044;-68
2023/09/01 11:28:13;;;;;;;11.30;4.10;;;;;;;13.43;100.00;99277.88;108971;1259;72418;-66
2023/09/01 11:31:05;;;;;;;7.70;3.60;;;;;;;13.92;100.00;99282.27;109061;1259;67796;-67
2023/09/01 11:33:53;;;;;;;8.60;3.60;;;;;;;14.41;100.00;99276.73;109040;1259;72422;-67
2023/09/01 11:36:49;;;;;;;7.80;3.20;;;;;;;14.83;100.00;99280.22;108951;1259;58274;-65
2023/09/01 11:39:35;;;;;;;8.00;3.30;;;;;;;15.15;100.00;99277.59;108898;1259;58830;-70
2023/09/01 11:42:21;;;;;;;8.50;3.40;;;;;;;15.44;98.22;99281.81;108998;1259;74877;-67
2023/09/01 11:45:11;;;;;;;7.50;3.00;;;;;;;15.63;96.92;99280.45;108943;1259;68900;-66
2023/09/01 11:47:57;;;;;;;7.20;2.60;;;;;;;15.78;95.68;99279.09;108961;1259;73520;-67
2023/09/01 11:50:45;;;;;;;6.40;2.60;;;;;;;15.83;93.85;99276.77;108964;1258;60309;-67
2023/09/01 11:53:33;;;;;;;7.50;2.60;;;;;;;15.81;93.23;99275.95;109019;1259;59988;-66
2023/09/01 11:56:22;;;;;;;7.30;2.90;;;;;;;16.00;93.90;99281.27;108979;1259;73961;-65
2023/09/01 11:59:08;;;;;;;6.80;2.90;;;;;;;16.55;92.65;99273.67;109016;1259;66748;-66
2023/09/01 12:01:55;;;;;;;6.90;3.00;;;;;;;16.99;89.53;99277.08;108990;1259;71428;-66
2023/09/01 12:04:49;;;;;;;6.80;2.60;;;;;;;17.18;87.37;99279.23;109027;1258;58443;-66
2023/09/01 12:07:35;;;;;;;7.00;2.50;;;;;;;17.46;85.68;99277.61;109010;1259;60251;-65
2023/09/01 12:10:22;;;;;;;8.60;2.70;;;;;;;17.42;84.88;99281.01;109008;1259;74780;-67
2023/09/01 12:13:10;;;;;;;8.10;2.60;;;;;;;17.66;84.86;99277.02;109005;1259;67815;-68
2023/09/01 12:16:03;;;;;;;7.50;2.50;;;;;;;17.47;82.74;99287.73;109007;1258;73494;-66
2023/09/01 12:18:51;;;;;;;6.90;2.40;;;;;;;17.05;84.72;99289.92;108993;1259;58809;-64
2023/09/01 12:21:37;;;;;;;6.30;2.70;;;;;;;16.72;86.22;99295.71;109074;1258;58702;-65
2023/09/01 12:24:24;;;;;;;7.10;2.70;;;;;;;16.50;87.40;99294.99;109043;1258;72689;-69
2023/09/01 12:27:10;;;;;;;6.80;2.50;;;;;;;16.31;88.94;99304.83;109038;1258;67786;-67
2023/09/01 12:29:57;;;;;;;8.10;2.60;;;;;;;16.10;89.58;99302.91;108963;1258;72658;-66
2023/09/01 12:32:43;;;;;;;8.50;2.20;;;;;;;16.07;90.37;99305.63;108953;1258;58374;-67
2023/09/01 12:35:29;;;;;;;7.60;2.20;;;;;;;15.96;90.90;99305.58;109002;1258;61168;-69
2023/09/01 12:38:17;;;;;;;6.80;2.30;;;;;;;15.83;91.81;99302.70;109014;1258;73690;-66
2023/09/01 12:41:04;;;;;;;6.10;2.10;;;;;;;15.73;92.70;99304.50;109024;1258;66839;-69
2023/09/01 12:43:50;;;;;;;8.20;2.70;;;;;;;15.69;92.72;99306.23;109007;1259;73547;-70
2023/09/01 12:46:37;;;;;;;7.20;2.00;;;;;;;15.70;93.03;99307.02;109024;1259;58571;-68
2023/09/01 12:49:23;;;;;;;6.30;2.00;;;;;;;15.88;92.87;99305.05;108993;1258;61307;-68
2023/09/01 12:52:10;;;;;;;6.10;2.00;;;;;;;15.97;93.00;99302.98;109007;1258;74742;-66
2023/09/01 12:54:57;;;;;;;5.90;1.70;;;;;;;15.93;93.15;99306.08;109115;1257;68593;-66
2023/09/01 12:57:44;;;;;;;5.60;1.90;;;;;;;15.78;93.02;99307.92;109210;1257;71066;-66
2023/09/01 13:00:30;;;;;;;6.00;2.20;;;;;;;15.56;94.41;99312.80;109095;1257;58150;-66